createdAt,value
2019-03-05T00:03:56.976Z,3.90
2019-03-05T00:08:48.419Z,4.00
2019-03-05T00:13:39.810Z,3.90
2019-03-05T00:18:31.418Z,3.90
2019-03-05T00:23:24.999Z,3.90
2019-03-05T00:28:16.474Z,3.90
2019-03-05T00:33:10.119Z,3.90
2019-03-05T00:38:03.775Z,3.90
2019-03-05T00:42:55.239Z,3.90
2019-03-05T00:47:46.626Z,3.90
2019-03-05T00:52:38.002Z,3.80
2019-03-05T00:57:29.394Z,3.90
2019-03-05T01:02:20.779Z,3.80
2019-03-05T01:07:12.205Z,3.80
2019-03-05T01:12:03.570Z,3.70
2019-03-05T01:16:57.212Z,3.70
2019-03-05T01:21:48.612Z,3.60
2019-03-05T01:26:40.095Z,3.60
2019-03-05T01:31:31.548Z,3.50
2019-03-05T01:36:22.862Z,3.40
2019-03-05T01:41:14.312Z,3.40
2019-03-05T01:46:05.710Z,3.30
2019-03-05T01:50:57.188Z,3.40
2019-03-05T01:55:48.492Z,3.30
2019-03-05T02:00:39.856Z,3.30
2019-03-05T02:05:31.259Z,3.30
2019-03-05T02:10:22.690Z,3.40
2019-03-05T02:15:14.031Z,3.50
2019-03-05T02:20:05.457Z,3.70
2019-03-05T02:24:56.757Z,3.70
2019-03-05T02:29:48.197Z,3.70
2019-03-05T02:34:41.865Z,3.70
2019-03-05T02:39:35.581Z,3.60
2019-03-05T02:44:26.918Z,3.60
2019-03-05T02:49:18.364Z,3.60
2019-03-05T02:54:09.758Z,3.60
2019-03-05T02:59:01.091Z,3.60
2019-03-05T03:03:52.521Z,3.60
2019-03-05T03:08:43.939Z,3.60
2019-03-05T03:13:37.487Z,3.70
2019-03-05T03:18:29.007Z,3.80
2019-03-05T03:23:20.303Z,3.90
2019-03-05T03:28:11.753Z,3.90
2019-03-05T03:33:03.206Z,4.00
2019-03-05T03:37:56.703Z,4.10
2019-03-05T03:42:48.234Z,4.10
2019-03-05T03:47:39.487Z,4.10
2019-03-05T03:52:30.909Z,3.90
2019-03-05T03:57:24.549Z,3.70
2019-03-05T04:02:20.461Z,3.70
2019-03-05T04:07:14.126Z,3.60
2019-03-05T04:16:56.971Z,3.70
2019-03-05T04:21:50.608Z,3.70
2019-03-05T04:26:44.255Z,3.60
2019-03-05T04:31:37.890Z,3.50
2019-03-05T04:36:29.342Z,3.50
2019-03-05T04:41:22.951Z,3.40
2019-03-05T04:46:14.353Z,3.30
2019-03-05T04:51:05.793Z,3.30
2019-03-05T04:55:57.214Z,3.20
2019-03-05T05:00:48.645Z,3.10
2019-03-05T05:05:39.929Z,3.10
2019-03-05T05:10:35.844Z,3.10
2019-03-05T05:15:27.265Z,3.00
2019-03-05T05:20:18.633Z,3.10
2019-03-05T05:25:10.060Z,3.10
2019-03-05T05:30:01.495Z,3.10
2019-03-05T05:34:52.806Z,3.20
2019-03-05T05:39:44.256Z,3.10
2019-03-05T05:44:35.676Z,3.20
2019-03-05T05:49:27.108Z,3.20
2019-03-05T05:54:18.495Z,3.10
2019-03-05T05:59:09.905Z,3.10
2019-03-05T06:04:01.268Z,3.20
2019-03-05T06:08:54.854Z,3.20
2019-03-05T06:13:46.312Z,3.20
2019-03-05T06:18:37.659Z,3.30
2019-03-05T06:23:29.062Z,3.40
2019-03-05T06:28:20.467Z,3.40
2019-03-05T06:33:11.907Z,3.60
2019-03-05T06:38:03.302Z,3.80
2019-03-05T06:42:54.680Z,4.10
2019-03-05T06:47:46.101Z,4.30
2019-03-05T06:52:37.423Z,4.40
2019-03-05T06:57:31.046Z,4.40
2019-03-05T07:02:24.730Z,4.50
2019-03-05T07:07:16.182Z,4.60
2019-03-05T07:12:09.741Z,4.70
2019-03-05T07:17:03.446Z,4.70
2019-03-05T07:21:57.094Z,4.70
2019-03-05T07:26:50.731Z,4.80
2019-03-05T07:31:44.421Z,4.90
2019-03-05T07:36:38.064Z,5.20
2019-03-05T07:41:29.609Z,5.40
2019-03-05T07:46:20.900Z,5.50
2019-03-05T07:51:12.310Z,5.60
2019-03-05T07:56:03.758Z,5.80
2019-03-05T08:00:55.087Z,6.00
2019-03-05T08:05:48.288Z,6.10
2019-03-05T08:10:37.820Z,6.30
2019-03-05T08:15:29.233Z,6.40
2019-03-05T08:20:20.663Z,6.40
2019-03-05T08:25:12.022Z,6.50
2019-03-05T08:30:15.538Z,6.60
2019-03-05T08:34:57.314Z,6.80
2019-03-05T08:39:48.626Z,6.80
2019-03-05T08:44:51.383Z,6.90
2019-03-05T08:49:33.644Z,7.20
2019-03-05T08:54:25.063Z,7.20
2019-03-05T08:59:18.681Z,7.20
2019-03-05T09:04:10.106Z,7.40
2019-03-05T09:09:01.474Z,7.30
2019-03-05T09:13:57.357Z,7.30
2019-03-05T09:18:48.795Z,7.60
2019-03-05T09:23:40.139Z,7.60
2019-03-05T09:28:31.573Z,7.70
2019-03-05T09:33:22.970Z,7.70
2019-03-05T09:38:14.385Z,7.70
2019-03-05T09:43:05.724Z,7.90
2019-03-05T09:47:57.120Z,8.20
2019-03-05T09:52:55.925Z,8.20
2019-03-05T09:57:42.172Z,8.30
2019-03-05T10:02:33.571Z,8.50
2019-03-05T10:07:25.034Z,8.50
2019-03-05T10:12:16.338Z,8.60
2019-03-05T10:17:07.699Z,8.70
2019-03-05T10:21:59.120Z,8.90
2019-03-05T10:26:50.522Z,9.10
2019-03-05T10:31:44.165Z,9.10
2019-03-05T10:36:35.524Z,9.20
2019-03-05T10:41:26.956Z,9.30
2019-03-05T10:46:18.318Z,9.30
2019-03-05T10:51:12.001Z,9.50
2019-03-05T10:56:03.431Z,9.60
2019-03-05T11:00:54.858Z,9.90
2019-03-05T11:10:42.058Z,10.00
2019-03-05T11:15:33.520Z,10.00
2019-03-05T11:20:24.901Z,10.10
2019-03-05T11:25:16.362Z,10.50
2019-03-05T11:30:07.761Z,10.70
2019-03-05T11:34:59.134Z,11.00
2019-03-05T11:39:55.198Z,10.80
2019-03-05T11:45:11.572Z,10.80
2019-03-05T11:49:35.562Z,10.70
2019-03-05T11:54:26.919Z,10.50
2019-03-05T11:59:18.341Z,10.40
2019-03-05T12:04:09.703Z,10.00
2019-03-05T12:09:01.172Z,10.10
2019-03-05T12:13:52.487Z,10.10
2019-03-05T12:18:43.871Z,10.20
2019-03-05T12:23:35.336Z,10.20
2019-03-05T12:28:26.729Z,10.10
2019-03-05T12:33:20.298Z,9.80
2019-03-05T12:38:11.726Z,9.80
2019-03-05T12:43:03.260Z,9.70
2019-03-05T12:47:55.127Z,9.70
2019-03-05T12:52:46.339Z,9.60
2019-03-05T12:57:39.514Z,9.50
2019-03-05T13:02:33.261Z,9.40
2019-03-05T13:07:24.767Z,9.40
2019-03-05T13:12:16.172Z,9.30
2019-03-05T13:17:07.567Z,9.20
2019-03-05T13:21:58.994Z,9.20
2019-03-05T13:26:50.379Z,9.00
2019-03-05T13:31:43.544Z,8.70
2019-03-05T13:36:33.244Z,8.50
2019-03-05T13:41:26.839Z,8.20
2019-03-05T13:46:18.232Z,8.10
2019-03-05T13:56:05.696Z,7.70
2019-03-05T14:01:05.933Z,7.70
2019-03-05T14:05:59.578Z,7.60
2019-03-05T14:10:51.073Z,7.60
2019-03-05T14:15:44.662Z,7.70
2019-03-05T14:20:37.498Z,7.50
2019-03-05T14:25:27.542Z,7.50
2019-03-05T14:30:21.954Z,7.40
2019-03-05T14:35:10.341Z,7.10
2019-03-05T14:40:25.424Z,7.00
2019-03-05T14:44:53.090Z,7.00
2019-03-05T14:49:44.447Z,6.90
2019-03-05T14:54:35.817Z,7.00
2019-03-05T14:59:27.212Z,6.90
2019-03-05T15:04:18.672Z,6.80
2019-03-05T15:09:10.043Z,6.70
2019-03-05T15:14:01.356Z,6.70
2019-03-05T15:18:54.950Z,6.50
2019-03-05T15:23:50.933Z,6.50
2019-03-05T15:28:56.767Z,6.50
2019-03-05T15:33:36.015Z,6.50
2019-03-05T15:38:36.489Z,6.50
2019-03-05T15:43:28.225Z,6.40
2019-03-05T15:48:21.631Z,6.20
2019-03-05T15:53:13.056Z,6.20
2019-03-05T15:58:04.340Z,6.10
2019-03-05T16:07:49.748Z,5.90
2019-03-05T16:12:42.492Z,5.80
2019-03-05T16:17:30.365Z,5.70
2019-03-05T16:22:21.318Z,5.60
2019-03-05T16:27:12.738Z,5.50
2019-03-05T16:32:04.090Z,5.40
2019-03-05T16:37:05.638Z,5.30
2019-03-05T16:41:58.715Z,5.30
2019-03-05T16:46:45.049Z,5.30
2019-03-05T16:51:38.863Z,5.30
2019-03-05T16:56:30.615Z,5.30
2019-03-05T17:01:21.874Z,5.30
2019-03-05T17:11:07.207Z,5.10
2019-03-05T17:15:59.232Z,5.10
2019-03-05T17:20:49.937Z,5.00
2019-03-05T17:25:43.340Z,5.00
2019-03-05T17:30:35.351Z,5.00
2019-03-05T17:35:25.982Z,5.00
2019-03-05T17:40:19.556Z,5.10
2019-03-05T17:45:11.051Z,5.10
2019-03-05T17:50:02.458Z,5.10
2019-03-05T17:54:53.896Z,5.10
2019-03-05T17:59:45.280Z,5.10
2019-03-05T18:04:36.533Z,5.10
2019-03-05T18:09:28.131Z,5.10
2019-03-05T18:14:19.413Z,5.20
2019-03-05T18:19:11.443Z,5.20
2019-03-05T18:24:02.203Z,5.20
2019-03-05T18:28:53.681Z,5.10
2019-03-05T18:33:45.023Z,5.00
2019-03-05T18:38:38.649Z,5.10
2019-03-05T18:43:30.096Z,5.10
2019-03-05T18:48:21.483Z,5.10
2019-03-05T18:53:12.980Z,5.10
2019-03-05T18:58:04.293Z,5.10
2019-03-05T19:02:55.849Z,5.10
2019-03-05T19:07:49.370Z,5.10
2019-03-05T19:12:40.889Z,5.00
2019-03-05T19:17:36.757Z,5.00
2019-03-05T19:22:28.229Z,5.00
2019-03-05T19:27:26.924Z,5.00
2019-03-05T19:32:10.976Z,5.00
2019-03-05T19:37:04.597Z,5.00
2019-03-05T19:41:56.979Z,5.00
2019-03-05T19:46:49.686Z,5.00
2019-03-05T19:56:34.812Z,5.00
2019-03-05T20:01:26.182Z,5.00
2019-03-05T20:06:18.306Z,5.00
2019-03-05T20:11:09.101Z,5.00
2019-03-05T20:16:00.405Z,5.10
2019-03-05T20:20:51.802Z,5.10
2019-03-05T20:25:43.233Z,5.10
2019-03-05T20:30:34.734Z,5.10
2019-03-05T20:35:26.030Z,5.20
2019-03-05T20:40:17.559Z,5.20
2019-03-05T20:45:11.225Z,5.20
2019-03-05T20:50:02.718Z,5.20
2019-03-05T20:54:54.146Z,5.10
2019-03-05T20:59:45.597Z,5.20
2019-03-05T21:04:36.997Z,5.20
2019-03-05T21:09:28.533Z,5.20
2019-03-05T21:14:20.610Z,5.10
2019-03-05T21:19:14.254Z,5.20
2019-03-05T21:24:08.145Z,5.20
2019-03-05T21:28:59.331Z,5.20
2019-03-05T21:33:52.653Z,5.20
2019-03-05T21:38:42.251Z,5.20
2019-03-05T21:43:35.866Z,5.20
2019-03-05T21:48:27.371Z,5.10
2019-03-05T21:53:18.782Z,4.90
2019-03-05T21:58:10.163Z,5.10
2019-03-05T22:03:01.623Z,5.10
2019-03-05T22:07:52.919Z,5.10
2019-03-05T22:12:44.366Z,5.10
2019-03-05T22:17:35.779Z,5.20
2019-03-05T22:22:27.195Z,5.20
2019-03-05T22:27:19.093Z,5.20
2019-03-05T22:32:09.944Z,5.20
2019-03-05T22:37:01.340Z,5.20
2019-03-05T22:41:52.726Z,5.20
2019-03-05T22:46:44.080Z,5.20
2019-03-05T22:51:35.489Z,5.30
2019-03-05T22:56:26.875Z,5.40
2019-03-05T23:01:18.323Z,5.40
2019-03-05T23:06:11.969Z,5.40
2019-03-05T23:11:03.383Z,5.40
2019-03-05T23:15:57.000Z,5.40
2019-03-05T23:20:48.439Z,5.40
2019-03-05T23:25:39.805Z,5.40
2019-03-05T23:30:33.432Z,5.40
2019-03-05T23:35:29.408Z,5.40
2019-03-05T23:40:20.849Z,5.20
2019-03-05T23:45:12.211Z,5.20
2019-03-05T23:50:03.586Z,5.10
2019-03-05T23:54:55.000Z,5.10
2019-03-05T23:59:48.768Z,5.00
